Time;durP1;ratioP1;P1;durP2;ratioP2;P2;SDS_P1;SDS_P2;PMS_P1;PMS_P2;Temp;Humidity;BMP_temperature;BMP_pressure;BME280_temperature;BME280_humidity;BME280_pressure;Samples;Min_cycle;Max_cycle;Signal;HPM_P1;HPM_P2
2023/12/21 00:00:17;;;;;;;53.80;22.43;;;;;;;-0.92;100.00;99932.48;1479262;88;21738;-78
2023/12/21 00:02:43;;;;;;;42.13;21.90;;;;;;;-0.99;100.00;99931.14;1474569;88;21606;-78
2023/12/21 00:05:10;;;;;;;51.57;25.40;;;;;;;-1.03;100.00;99934.84;1458645;88;21696;-78
2023/12/21 00:07:36;;;;;;;47.93;21.67;;;;;;;-1.08;100.00;99935.56;1490460;88;21457;-78
2023/12/21 00:10:03;;;;;;;39.13;22.57;;;;;;;-1.08;100.00;99935.56;1478464;88;23233;-77
2023/12/21 00:12:29;;;;;;;43.60;21.67;;;;;;;-1.10;100.00;99927.00;1474908;88;21707;-77
2023/12/21 00:14:56;;;;;;;38.67;21.03;;;;;;;-1.09;100.00;99937.80;1452824;88;21665;-78
2023/12/21 00:17:22;;;;;;;42.63;22.43;;;;;;;-1.08;100.00;99938.16;1477381;88;22121;-78
2023/12/21 00:19:48;;;;;;;39.47;19.23;;;;;;;-1.08;100.00;99940.75;1562519;88;21556;-77
2023/12/21 00:22:14;;;;;;;34.70;19.87;;;;;;;-1.10;100.00;99946.48;1403748;88;21517;-78
2023/12/21 00:24:41;;;;;;;47.33;23.67;;;;;;;-1.09;100.00;99937.80;1390525;89;21817;-78
2023/12/21 00:27:07;;;;;;;35.43;19.70;;;;;;;-1.08;100.00;99944.65;1403484;88;21498;-78
2023/12/21 00:29:33;;;;;;;38.37;21.13;;;;;;;-1.06;100.00;99952.38;1403621;88;21487;-77
2023/12/21 00:32:00;;;;;;;41.57;21.30;;;;;;;-1.05;100.00;99963.95;1560916;88;21710;-77
2023/12/21 00:34:26;;;;;;;37.60;20.07;;;;;;;-1.00;100.00;99955.92;1448273;88;22491;-76
2023/12/21 00:36:52;;;;;;;39.23;20.10;;;;;;;-0.95;100.00;99952.14;1403931;88;21431;-78
2023/12/21 00:39:18;;;;;;;40.90;18.60;;;;;;;-0.91;100.00;99961.89;1403611;88;21789;-78
2023/12/21 00:41:44;;;;;;;30.50;17.17;;;;;;;-0.92;100.00;99964.96;1403867;88;21490;-78
2023/12/21 00:44:10;;;;;;;36.67;16.27;;;;;;;-0.95;100.00;99959.94;1409233;88;21317;-78
2023/12/21 00:46:37;;;;;;;25.57;15.17;;;;;;;-1.01;100.00;99958.95;1565651;88;21419;-78
2023/12/21 00:49:03;;;;;;;30.83;18.33;;;;;;;-1.04;100.00;99960.42;1404615;88;21683;-78
2023/12/21 00:51:29;;;;;;;36.80;20.87;;;;;;;-1.09;100.00;99939.09;1403921;88;21428;-78
2023/12/21 00:53:55;;;;;;;27.57;16.80;;;;;;;-1.10;100.00;99942.59;1403508;88;22642;-78
2023/12/21 00:56:21;;;;;;;29.23;18.23;;;;;;;-1.12;100.00;99937.09;1442274;88;22099;-78
2023/12/21 00:58:48;;;;;;;29.57;18.27;;;;;;;-1.12;100.00;99936.66;1474521;88;21609;-78
2023/12/21 01:01:14;;;;;;;28.17;17.77;;;;;;;-1.09;100.00;99936.49;1482257;88;21590;-78
2023/12/21 01:03:40;;;;;;;31.33;18.47;;;;;;;-1.09;100.00;99937.80;1485435;88;21683;-78
2023/12/21 01:06:07;;;;;;;31.63;17.37;;;;;;;-1.09;100.00;99936.49;1477923;88;22564;-77
2023/12/21 01:08:33;;;;;;;27.87;17.97;;;;;;;-1.11;100.00;99929.70;1482958;88;21519;-78
2023/12/21 01:11:00;;;;;;;29.93;18.60;;;;;;;-1.14;100.00;99932.01;1477573;88;21778;-78
2023/12/21 01:13:27;;;;;;;24.60;15.07;;;;;;;-1.20;100.00;99935.78;1483686;88;22652;-78
2023/12/21 01:15:53;;;;;;;24.43;15.77;;;;;;;-1.24;100.00;99939.92;1460173;88;21655;-78
2023/12/21 01:18:19;;;;;;;31.00;17.03;;;;;;;-1.32;100.00;99940.80;1483973;88;21610;-78
2023/12/21 01:20:45;;;;;;;24.73;15.03;;;;;;;-1.41;100.00;99930.02;1478445;88;23055;-78
2023/12/21 01:23:11;;;;;;;27.30;16.10;;;;;;;-1.46;100.00;99932.48;1471334;88;21522;-77
2023/12/21 01:25:37;;;;;;;26.50;15.90;;;;;;;-1.48;100.00;99923.94;1460531;88;22560;-79
2023/12/21 01:28:04;;;;;;;25.30;15.57;;;;;;;-1.52;100.00;99917.25;1471063;88;21407;-77
2023/12/21 01:30:30;;;;;;;36.67;18.20;;;;;;;-1.56;100.00;99916.55;1473147;88;21806;-78
2023/12/21 01:32:56;;;;;;;27.63;16.40;;;;;;;-1.57;100.00;99916.19;1479932;88;22041;-77
2023/12/21 01:35:22;;;;;;;37.97;17.90;;;;;;;-1.55;100.00;99918.25;1456804;88;21532;-77
2023/12/21 01:37:49;;;;;;;28.83;15.87;;;;;;;-1.52;100.00;99915.95;1472492;88;21695;-78
2023/12/21 01:40:16;;;;;;;30.30;18.07;;;;;;;-1.54;100.00;99912.13;1473877;88;21565;-78
2023/12/21 01:42:42;;;;;;;25.73;15.33;;;;;;;-1.59;100.00;99904.58;1467875;88;22531;-77
2023/12/21 01:45:09;;;;;;;33.73;17.60;;;;;;;-1.61;100.00;99905.61;1473370;88;22084;-79
2023/12/21 01:47:36;;;;;;;35.17;19.73;;;;;;;-1.65;100.00;99890.64;1461574;88;21784;-78
2023/12/21 01:50:03;;;;;;;36.73;20.67;;;;;;;-1.65;100.00;99895.00;1464492;88;21584;-78
2023/12/21 01:52:30;;;;;;;31.03;18.73;;;;;;;-1.65;100.00;99885.45;1483769;88;21912;-78
2023/12/21 01:54:57;;;;;;;33.97;18.60;;;;;;;-1.64;100.00;99882.39;1450328;88;21458;-78
2023/12/21 01:57:24;;;;;;;34.13;18.07;;;;;;;-1.67;100.00;99883.42;1476925;88;22502;-77
2023/12/21 01:59:51;;;;;;;35.80;19.53;;;;;;;-1.66;100.00;99884.25;1486913;88;21608;-77
2023/12/21 02:02:18;;;;;;;27.93;16.50;;;;;;;-1.68;100.00;99890.81;1469681;88;21577;-78
2023/12/21 02:04:45;;;;;;;35.70;18.00;;;;;;;-1.73;100.00;99880.30;1482951;88;21752;-78
2023/12/21 02:07:11;;;;;;;33.47;17.43;;;;;;;-1.75;100.00;99882.16;1474707;88;22713;-79
2023/12/21 02:09:37;;;;;;;34.13;18.87;;;;;;;-1.76;100.00;99880.47;1455591;88;21600;-79
2023/12/21 02:12:04;;;;;;;32.20;20.73;;;;;;;-1.77;100.00;99877.05;1469980;88;21692;-79
2023/12/21 02:14:30;;;;;;;32.10;18.43;;;;;;;-1.72;100.00;99879.41;1473698;88;21636;-78
2023/12/21 02:17:01;;;;;;;28.33;17.00;;;;;;;-1.68;100.00;99879.60;1479343;88;22428;-78
2023/12/21 02:19:28;;;;;;;26.60;16.60;;;;;;;-1.63;100.00;99871.95;1472843;88;21589;-78
2023/12/21 02:21:59;;;;;;;23.93;14.40;;;;;;;-1.57;100.00;99880.33;1478069;88;22434;-78
2023/12/21 02:24:26;;;;;;;24.25;16.20;;;;;;;-1.59;100.00;99884.28;1478336;88;22583;-79
2023/12/21 02:26:53;;;;;;;24.23;15.47;;;;;;;-1.55;100.00;99878.02;1470645;88;21420;-78
2023/12/21 02:29:19;;;;;;;24.80;15.40;;;;;;;-1.50;100.00;99875.98;1469924;88;21563;-78
2023/12/21 02:31:45;;;;;;;25.23;15.67;;;;;;;-1.45;100.00;99871.85;1470583;88;21827;-78
2023/12/21 02:34:11;;;;;;;25.77;15.47;;;;;;;-1.39;100.00;99870.21;1479419;88;22479;-78
2023/12/21 02:36:37;;;;;;;26.07;17.17;;;;;;;-1.33;100.00;99872.93;1471576;88;21818;-77
2023/12/21 02:39:04;;;;;;;26.20;16.03;;;;;;;-1.33;100.00;99860.78;1466343;88;21614;-78
2023/12/21 02:41:30;;;;;;;29.30;18.30;;;;;;;-1.31;100.00;99847.26;1476821;88;21678;-77
2023/12/21 02:43:56;;;;;;;24.47;15.00;;;;;;;-1.30;100.00;99839.00;1471205;88;21540;-79
2023/12/21 02:46:26;;;;;;;25.07;13.70;;;;;;;-1.27;100.00;99836.23;1474141;88;22609;-79
2023/12/21 02:48:53;;;;;;;24.50;15.43;;;;;;;-1.28;100.00;99837.16;1467329;88;21830;-78
2023/12/21 02:51:19;;;;;;;23.20;14.30;;;;;;;-1.27;100.00;99826.67;1474085;88;21664;-78
2023/12/21 02:53:45;;;;;;;24.77;13.47;;;;;;;-1.27;100.00;99825.84;1475072;88;21699;-79
2023/12/21 02:56:11;;;;;;;27.17;15.27;;;;;;;-1.30;100.00;99827.32;1445138;88;22619;-78
2023/12/21 02:58:37;;;;;;;29.63;16.70;;;;;;;-1.34;100.00;99818.87;1474236;88;21555;-78
2023/12/21 03:01:04;;;;;;;28.60;15.97;;;;;;;-1.32;100.00;99827.86;1469049;88;21568;-78
2023/12/21 03:03:30;;;;;;;29.73;18.57;;;;;;;-1.28;100.00;99829.38;1483839;88;21592;-78
2023/12/21 03:05:56;;;;;;;27.97;15.80;;;;;;;-1.25;100.00;99824.84;1475987;88;21682;-78
2023/12/21 03:08:23;;;;;;;23.93;15.07;;;;;;;-1.23;100.00;99820.87;1476673;88;22397;-78
2023/12/21 03:10:50;;;;;;;26.30;15.83;;;;;;;-1.20;100.00;99812.44;1481922;88;21606;-78
2023/12/21 03:13:17;;;;;;;26.87;15.33;;;;;;;-1.17;100.00;99810.96;1477765;88;21538;-78
2023/12/21 03:15:43;;;;;;;23.47;14.60;;;;;;;-1.15;100.00;99806.99;1474425;88;21555;-78
2023/12/21 03:18:10;;;;;;;22.07;13.87;;;;;;;-1.17;100.00;99802.34;1477930;88;22637;-78
2023/12/21 03:20:36;;;;;;;25.87;16.03;;;;;;;-1.20;100.00;99811.14;1482800;88;21592;-78
2023/12/21 03:23:03;;;;;;;25.83;15.73;;;;;;;-1.18;100.00;99800.64;1471142;88;21456;-78
2023/12/21 03:25:29;;;;;;;26.43;16.10;;;;;;;-1.17;100.00;99794.55;1477728;88;22021;-79
2023/12/21 03:27:55;;;;;;;25.40;15.87;;;;;;;-1.15;100.00;99797.44;1486010;88;21763;-78
2023/12/21 03:30:22;;;;;;;28.03;16.27;;;;;;;-1.12;100.00;99798.16;1484199;88;22729;-78
2023/12/21 03:32:48;;;;;;;28.53;16.83;;;;;;;-1.08;100.00;99803.09;1479350;88;21664;-79
2023/12/21 03:35:15;;;;;;;31.70;17.37;;;;;;;-1.04;100.00;99803.75;1473931;88;22461;-78
2023/12/21 03:37:41;;;;;;;25.93;16.90;;;;;;;-0.98;100.00;99808.59;1478312;88;21668;-78
2023/12/21 03:40:08;;;;;;;30.10;17.27;;;;;;;-0.93;100.00;99805.27;1486442;88;21682;-78
2023/12/21 03:42:34;;;;;;;29.83;17.73;;;;;;;-0.91;100.00;99809.91;1486267;88;22545;-78
2023/12/21 03:45:00;;;;;;;29.97;17.07;;;;;;;-0.87;100.00;99810.56;1483070;88;21555;-78
2023/12/21 03:47:26;;;;;;;34.80;19.40;;;;;;;-0.84;100.00;99813.81;1476039;88;21909;-78
2023/12/21 03:49:53;;;;;;;35.83;18.63;;;;;;;-0.83;100.00;99802.51;1475008;88;21595;-77
2023/12/21 03:52:19;;;;;;;34.57;20.50;;;;;;;-0.83;100.00;99795.19;1485194;88;21382;-77
2023/12/21 03:54:45;;;;;;;33.37;18.73;;;;;;;-0.83;100.00;99796.48;1474559;88;21647;-76
2023/12/21 03:57:11;;;;;;;35.87;19.63;;;;;;;-0.81;100.00;99802.41;1477060;88;22750;-77
2023/12/21 03:59:37;;;;;;;36.40;20.13;;;;;;;-0.81;100.00;99806.30;1479440;88;22771;-77
2023/12/21 04:02:04;;;;;;;34.83;20.33;;;;;;;-0.80;100.00;99809.30;1479711;88;21564;-77
2023/12/21 04:04:32;;;;;;;38.83;21.60;;;;;;;-0.76;100.00;99808.17;1459367;88;22664;-77
2023/12/21 04:06:58;;;;;;;32.30;19.00;;;;;;;-0.73;100.00;99813.19;1477336;88;21904;-77
2023/12/21 04:09:26;;;;;;;35.57;19.30;;;;;;;-0.71;100.00;99817.84;1477628;88;21515;-77
2023/12/21 04:11:52;;;;;;;40.10;23.50;;;;;;;-0.71;100.00;99812.64;1471406;88;21540;-77
2023/12/21 04:14:19;;;;;;;34.80;19.60;;;;;;;-0.71;100.00;99809.58;1473032;88;21545;-78
2023/12/21 04:16:45;;;;;;;37.03;20.03;;;;;;;-0.65;100.00;99812.27;1471991;88;22267;-78
2023/12/21 04:19:11;;;;;;;35.90;20.23;;;;;;;-0.59;100.00;99820.17;1476356;88;21442;-79
2023/12/21 04:21:37;;;;;;;36.93;21.63;;;;;;;-0.58;100.00;99809.66;1471478;88;23195;-77
2023/12/21 04:24:06;;;;;;;37.87;22.57;;;;;;;-0.52;100.00;99817.56;1470435;88;22174;-77
2023/12/21 04:26:32;;;;;;;38.70;23.10;;;;;;;-0.49;100.00;99816.94;1479085;88;21601;-77
2023/12/21 04:28:58;;;;;;;35.93;20.10;;;;;;;-0.44;100.00;99811.44;1457912;88;21856;-77
2023/12/21 04:31:24;;;;;;;43.70;21.93;;;;;;;-0.43;100.00;99809.23;1476315;88;22584;-78
2023/12/21 04:33:52;;;;;;;40.57;20.87;;;;;;;-0.41;100.00;99810.42;1478052;88;21616;-78
2023/12/21 04:36:19;;;;;;;41.00;21.20;;;;;;;-0.41;100.00;99793.52;1480842;88;21676;-78
2023/12/21 04:38:46;;;;;;;37.20;22.00;;;;;;;-0.43;100.00;99788.88;1472291;88;21762;-78
2023/12/21 04:41:12;;;;;;;38.63;21.17;;;;;;;-0.43;100.00;99787.58;1471707;88;22677;-78
2023/12/21 04:43:38;;;;;;;36.67;21.80;;;;;;;-0.46;100.00;99781.65;1472746;88;21705;-78
2023/12/21 04:46:05;;;;;;;42.67;23.53;;;;;;;-0.44;100.00;99775.05;1441595;88;21585;-77
2023/12/21 04:48:32;;;;;;;39.27;22.37;;;;;;;-0.42;100.00;99761.49;1471631;88;21688;-78
2023/12/21 04:50:59;;;;;;;36.10;20.77;;;;;;;-0.40;100.00;99760.08;1452843;88;21607;-78
2023/12/21 04:53:25;;;;;;;37.63;21.17;;;;;;;-0.40;100.00;99747.08;1466438;88;21570;-78
2023/12/21 04:55:52;;;;;;;36.00;20.23;;;;;;;-0.37;100.00;99746.92;1472796;88;21627;-78
2023/12/21 04:58:18;;;;;;;34.50;19.80;;;;;;;-0.34;100.00;99759.73;1475091;88;21722;-79
2023/12/21 05:00:50;;;;;;;41.20;24.70;;;;;;;-0.31;100.00;99762.14;1469842;88;22765;-77
2023/12/21 05:03:18;;;;;;;37.47;21.10;;;;;;;-0.30;100.00;99756.83;1467639;88;21890;-78
2023/12/21 05:05:45;;;;;;;34.77;20.50;;;;;;;-0.25;100.00;99761.76;1469319;88;22537;-78
2023/12/21 05:08:12;;;;;;;39.77;20.07;;;;;;;-0.27;100.00;99767.04;1479888;88;22557;-77
2023/12/21 05:10:40;;;;;;;35.07;21.23;;;;;;;-0.25;100.00;99769.09;1482314;88;21726;-77
2023/12/21 05:13:07;;;;;;;38.90;22.43;;;;;;;-0.26;100.00;99767.88;1480917;88;21775;-78
2023/12/21 05:15:33;;;;;;;33.43;19.60;;;;;;;-0.27;100.00;99761.01;1479580;88;21800;-78
2023/12/21 05:18:00;;;;;;;37.17;20.13;;;;;;;-0.26;100.00;99760.07;1480597;88;21647;-77
2023/12/21 05:20:26;;;;;;;36.00;21.03;;;;;;;-0.26;100.00;99760.93;1473742;88;22648;-76
2023/12/21 05:22:52;;;;;;;39.63;21.20;;;;;;;-0.23;100.00;99752.11;1480197;88;21895;-77
2023/12/21 05:25:18;;;;;;;36.23;20.93;;;;;;;-0.20;100.00;99749.75;1473782;88;22233;-78
2023/12/21 05:27:44;;;;;;;36.93;21.37;;;;;;;-0.20;100.00;99749.75;1472548;88;21915;-78
2023/12/21 05:30:11;;;;;;;33.90;19.83;;;;;;;-0.23;100.00;99735.20;1477116;88;22468;-79
2023/12/21 05:32:38;;;;;;;35.17;19.57;;;;;;;-0.24;100.00;99729.61;1480029;88;21510;-77
2023/12/21 05:35:05;;;;;;;36.63;22.13;;;;;;;-0.22;100.00;99729.53;1465998;88;22715;-78
2023/12/21 05:37:31;;;;;;;35.00;20.97;;;;;;;-0.22;100.00;99730.83;1473888;88;22658;-79
2023/12/21 05:39:57;;;;;;;35.23;20.50;;;;;;;-0.25;100.00;99730.55;1472927;88;21627;-79
2023/12/21 05:42:23;;;;;;;36.57;21.50;;;;;;;-0.26;100.00;99739.27;1472076;88;21678;-79
2023/12/21 05:44:50;;;;;;;32.63;20.27;;;;;;;-0.32;100.00;99735.75;1468858;88;22492;-79
2023/12/21 05:47:16;;;;;;;31.20;20.00;;;;;;;-0.35;100.00;99729.44;1476304;88;21585;-79
2023/12/21 05:49:42;;;;;;;31.97;18.80;;;;;;;-0.37;100.00;99726.13;1478159;88;21710;-79
2023/12/21 05:52:08;;;;;;;35.27;20.67;;;;;;;-0.38;100.00;99716.16;1452698;88;21734;-78
2023/12/21 05:54:35;;;;;;;36.63;21.10;;;;;;;-0.38;100.00;99724.43;1470030;88;21564;-78
2023/12/21 05:57:02;;;;;;;31.67;19.30;;;;;;;-0.38;100.00;99722.66;1470359;88;21610;-79
2023/12/21 05:59:28;;;;;;;34.00;20.00;;;;;;;-0.39;100.00;99735.77;1475967;88;22446;-79
2023/12/21 06:01:55;;;;;;;30.53;19.57;;;;;;;-0.41;100.00;99724.63;1471504;88;21720;-78
2023/12/21 06:04:21;;;;;;;32.13;18.50;;;;;;;-0.47;100.00;99725.37;1485486;88;21606;-78
2023/12/21 06:06:47;;;;;;;33.70;21.20;;;;;;;-0.49;100.00;99716.85;1471266;88;21674;-79
2023/12/21 06:09:14;;;;;;;33.80;19.70;;;;;;;-0.50;100.00;99714.33;1473470;88;22521;-79
2023/12/21 06:11:41;;;;;;;32.50;19.87;;;;;;;-0.53;100.00;99695.86;1465670;88;21713;-80
2023/12/21 06:14:09;;;;;;;37.83;22.93;;;;;;;-0.51;100.00;99680.17;1485835;88;21642;-79
2023/12/21 06:16:35;;;;;;;29.47;20.00;;;;;;;-0.49;100.00;99677.00;1489011;87;21821;-79
2023/12/21 06:19:09;;;;;;;30.07;19.60;;;;;;;-0.52;100.00;99677.19;1476175;87;21635;-79
2023/12/21 06:21:31;;;;;;;36.97;22.30;;;;;;;-0.57;100.00;99682.69;1476717;88;21614;-78
2023/12/21 06:23:57;;;;;;;29.83;18.60;;;;;;;-0.61;100.00;99698.09;1480186;88;21457;-79
2023/12/21 06:26:23;;;;;;;34.87;20.67;;;;;;;-0.65;100.00;99721.31;1475857;87;21540;-79
2023/12/21 06:28:49;;;;;;;40.80;22.40;;;;;;;-0.67;100.00;99742.65;1476261;88;22425;-79
2023/12/21 06:31:17;;;;;;;39.30;24.30;;;;;;;-0.67;100.00;99759.54;1485687;88;21777;-79
2023/12/21 06:33:43;;;;;;;33.77;19.50;;;;;;;-0.66;100.00;99746.94;1482387;88;22471;-79
2023/12/21 06:36:09;;;;;;;33.23;20.27;;;;;;;-0.69;100.00;99738.03;1484158;88;21631;-79
2023/12/21 06:38:36;;;;;;;35.67;20.67;;;;;;;-0.69;100.00;99741.92;1480773;88;21805;-79
2023/12/21 06:41:02;;;;;;;29.13;18.90;;;;;;;-0.69;100.00;99739.33;1457900;88;22521;-79
2023/12/21 06:43:28;;;;;;;31.87;21.40;;;;;;;-0.72;100.00;99748.14;1483304;87;21687;-79
2023/12/21 06:45:54;;;;;;;30.33;19.60;;;;;;;-0.76;100.00;99743.21;1480181;88;21674;-79
2023/12/21 06:48:21;;;;;;;30.20;20.20;;;;;;;-0.77;100.00;99751.94;1457669;88;21575;-79
2023/12/21 06:50:47;;;;;;;36.80;20.00;;;;;;;-0.79;100.00;99742.09;1444385;88;22484;-78
2023/12/21 06:53:15;;;;;;;33.27;21.80;;;;;;;-0.78;100.00;99730.77;1475075;88;21578;-78
2023/12/21 06:55:42;;;;;;;27.33;18.63;;;;;;;-0.77;100.00;99738.95;1483213;88;21577;-79
2023/12/21 06:58:09;;;;;;;34.80;19.30;;;;;;;-0.77;100.00;99732.45;1484478;88;21721;-78
2023/12/21 07:00:35;;;;;;;35.27;21.57;;;;;;;-0.74;100.00;99723.17;1484498;88;21547;-79
2023/12/21 07:03:02;;;;;;;35.07;22.27;;;;;;;-0.71;100.00;99716.48;1487119;88;21636;-79
2023/12/21 07:05:28;;;;;;;34.83;21.77;;;;;;;-0.69;100.00;99714.64;1486644;87;21690;-78
2023/12/21 07:07:55;;;;;;;32.27;19.67;;;;;;;-0.66;100.00;99724.84;1473931;88;21628;-78
2023/12/21 07:10:21;;;;;;;29.60;18.87;;;;;;;-0.63;100.00;99723.36;1474369;87;21693;-78
2023/12/21 07:12:48;;;;;;;30.40;19.50;;;;;;;-0.62;100.00;99730.22;1480285;88;21450;-78
2023/12/21 07:15:16;;;;;;;36.93;22.50;;;;;;;-0.63;100.00;99735.05;1479994;88;22678;-78
2023/12/21 07:17:42;;;;;;;35.53;20.67;;;;;;;-0.64;100.00;99733.36;1482415;88;21676;-78
2023/12/21 07:20:10;;;;;;;29.20;18.83;;;;;;;-0.63;100.00;99728.99;1480596;88;21572;-79
2023/12/21 07:22:36;;;;;;;26.87;19.77;;;;;;;-0.64;100.00;99726.03;1482104;88;22679;-77
2023/12/21 07:25:03;;;;;;;35.00;20.57;;;;;;;-0.60;100.00;99720.57;1481093;88;21642;-77
2023/12/21 07:27:29;;;;;;;27.60;17.70;;;;;;;-0.57;100.00;99716.95;1479403;88;21792;-75
2023/12/21 07:29:55;;;;;;;30.17;17.60;;;;;;;-0.55;100.00;99713.30;1477057;88;21612;-74
2023/12/21 07:32:21;;;;;;;30.57;19.27;;;;;;;-0.52;100.00;99720.94;1479047;88;22448;-74
2023/12/21 07:34:48;;;;;;;27.80;18.20;;;;;;;-0.51;100.00;99719.17;1478694;88;21731;-74
2023/12/21 07:37:16;;;;;;;26.03;16.53;;;;;;;-0.48;100.00;99718.98;1486232;88;21538;-74
2023/12/21 07:39:43;;;;;;;27.17;17.23;;;;;;;-0.49;100.00;99711.65;1479049;88;22684;-74
2023/12/21 07:42:09;;;;;;;28.10;18.90;;;;;;;-0.51;100.00;99713.97;1470780;88;21639;-74
2023/12/21 07:44:37;;;;;;;29.00;19.00;;;;;;;-0.50;100.00;99705.23;1476414;88;22262;-74
2023/12/21 07:47:03;;;;;;;29.67;17.97;;;;;;;-0.46;100.00;99697.16;1476795;88;21688;-74
2023/12/21 07:49:29;;;;;;;29.10;17.67;;;;;;;-0.42;100.00;99695.20;1485678;88;21555;-77
2023/12/21 07:51:56;;;;;;;25.20;17.60;;;;;;;-0.42;100.00;99700.87;1484572;88;22668;-76
2023/12/21 07:54:22;;;;;;;28.97;18.53;;;;;;;-0.41;100.00;99702.52;1478486;88;21456;-76
2023/12/21 07:56:48;;;;;;;26.43;18.10;;;;;;;-0.35;100.00;99713.84;1486288;88;21654;-76
2023/12/21 07:59:14;;;;;;;29.93;19.60;;;;;;;-0.33;100.00;99709.39;1461242;88;21503;-76
2023/12/21 08:01:41;;;;;;;28.57;18.83;;;;;;;-0.31;100.00;99708.84;1488968;88;21675;-77
2023/12/21 08:04:11;;;;;;;29.73;19.83;;;;;;;-0.26;100.00;99696.36;1472667;88;21792;-76
2023/12/21 08:06:37;;;;;;;33.40;19.63;;;;;;;-0.22;100.00;99704.34;1480544;88;21656;-75
2023/12/21 08:09:04;;;;;;;28.13;17.93;;;;;;;-0.24;100.00;99702.30;1478560;88;21741;-75
2023/12/21 08:11:30;;;;;;;27.00;16.97;;;;;;;-0.24;100.00;99695.80;1481194;88;21761;-76
2023/12/21 08:13:56;;;;;;;26.37;18.83;;;;;;;-0.18;100.00;99700.61;1458748;88;21665;-75
2023/12/21 08:16:23;;;;;;;29.57;19.20;;;;;;;-0.12;100.00;99695.02;1475252;88;21673;-75
2023/12/21 08:18:49;;;;;;;25.60;17.63;;;;;;;0.00;100.00;99690.83;1480594;88;21805;-75
2023/12/21 08:21:15;;;;;;;26.03;17.47;;;;;;;0.09;100.00;99698.03;1479456;88;21777;-76
2023/12/21 08:23:42;;;;;;;24.27;17.37;;;;;;;0.21;100.00;99699.01;1476422;88;21798;-78
2023/12/21 08:26:09;;;;;;;32.17;19.83;;;;;;;0.31;100.00;99675.33;1481897;88;22073;-77
2023/12/21 08:28:35;;;;;;;33.33;20.27;;;;;;;0.45;100.00;99683.06;1474455;88;21733;-78
2023/12/21 08:31:03;;;;;;;32.17;21.37;;;;;;;0.74;100.00;99664.66;1462244;88;22011;-76
2023/12/21 08:33:30;;;;;;;33.03;21.97;;;;;;;0.74;100.00;99664.66;1474994;88;21804;-77
2023/12/21 08:35:57;;;;;;;34.90;21.40;;;;;;;0.82;100.00;99662.38;1473290;88;21781;-78
2023/12/21 08:38:23;;;;;;;30.17;20.13;;;;;;;0.82;100.00;99662.38;1482927;88;23224;-78
2023/12/21 08:40:49;;;;;;;26.73;18.13;;;;;;;0.98;100.00;99671.75;1478187;88;22143;-76
2023/12/21 08:43:16;;;;;;;25.90;16.67;;;;;;;1.08;100.00;99672.80;1476303;88;22038;-77
2023/12/21 08:45:42;;;;;;;31.93;20.87;;;;;;;1.08;100.00;99663.67;1481069;88;23129;-76
2023/12/21 08:48:08;;;;;;;29.97;19.17;;;;;;;1.11;100.00;99668.67;1459211;88;22128;-77
2023/12/21 08:50:34;;;;;;;33.20;20.03;;;;;;;1.06;100.00;99662.94;1476856;88;22083;-76
2023/12/21 08:53:02;;;;;;;29.47;18.83;;;;;;;0.93;100.00;99644.72;1479365;88;22164;-76
2023/12/21 08:55:29;;;;;;;30.07;20.43;;;;;;;0.87;100.00;99637.33;1478807;88;22201;-77
2023/12/21 08:57:57;;;;;;;29.10;19.33;;;;;;;0.89;100.00;99652.36;1480496;88;22156;-78
2023/12/21 09:00:24;;;;;;;38.10;20.47;;;;;;;0.84;100.00;99644.05;1484840;88;22075;-77
2023/12/21 09:02:51;;;;;;;28.23;18.63;;;;;;;0.87;100.00;99652.48;1456139;88;22110;-78
2023/12/21 09:05:18;;;;;;;31.13;19.03;;;;;;;0.88;100.00;99650.70;1481007;88;22874;-77
2023/12/21 09:07:44;;;;;;;31.07;21.77;;;;;;;0.84;100.00;99642.27;1481200;88;22573;-77
2023/12/21 09:10:11;;;;;;;30.73;19.70;;;;;;;0.97;100.00;99647.47;1482181;88;22039;-76
2023/12/21 09:12:37;;;;;;;31.83;21.07;;;;;;;0.97;100.00;99640.95;1483569;88;22172;-77
2023/12/21 09:15:05;;;;;;;33.00;20.63;;;;;;;1.01;100.00;99646.81;1487019;88;23192;-76
2023/12/21 09:17:32;;;;;;;34.97;21.50;;;;;;;1.05;100.00;99651.69;1478812;88;22046;-77
2023/12/21 09:19:58;;;;;;;34.67;22.40;;;;;;;1.10;100.00;99650.08;1481028;88;22123;-78
2023/12/21 09:22:24;;;;;;;39.07;22.50;;;;;;;1.10;100.00;99650.08;1469762;88;22602;-77
2023/12/21 09:24:50;;;;;;;34.40;22.83;;;;;;;1.13;100.00;99649.86;1479238;88;22140;-77
2023/12/21 09:27:16;;;;;;;32.97;21.17;;;;;;;1.12;100.00;99653.39;1478383;88;21570;-77
2023/12/21 09:29:43;;;;;;;32.93;20.83;;;;;;;1.11;100.00;99654.34;1478876;88;22085;-78
2023/12/21 09:32:10;;;;;;;30.90;20.20;;;;;;;1.13;100.00;99651.99;1482097;88;22130;-77
2023/12/21 09:34:36;;;;;;;43.67;23.70;;;;;;;1.13;100.00;99638.13;1479050;88;23193;-77
2023/12/21 09:37:04;;;;;;;38.00;23.03;;;;;;;1.16;100.00;99639.22;1482498;88;22081;-76
2023/12/21 09:39:31;;;;;;;34.67;21.47;;;;;;;1.19;100.00;99627.27;1478222;88;22155;-77
2023/12/21 09:42:01;;;;;;;34.17;20.03;;;;;;;1.24;100.00;99613.45;1455841;88;22988;-77
2023/12/21 09:44:29;;;;;;;36.33;22.03;;;;;;;1.24;100.00;99613.45;1477630;88;23003;-77
2023/12/21 09:46:56;;;;;;;34.37;22.70;;;;;;;1.28;100.00;99618.80;1407471;88;22146;-77
2023/12/21 09:49:23;;;;;;;30.27;20.20;;;;;;;1.32;100.00;99611.14;1401972;88;21976;-78
2023/12/21 09:51:53;;;;;;;32.70;19.67;;;;;;;1.34;100.00;99605.33;1446966;88;23236;-77
2023/12/21 09:54:20;;;;;;;31.37;16.80;;;;;;;1.38;100.00;99599.89;1471175;88;22957;-79
2023/12/21 09:56:50;;;;;;;29.27;17.97;;;;;;;1.38;100.00;99599.89;1457466;88;23235;-78
2023/12/21 09:59:16;;;;;;;39.57;20.73;;;;;;;1.45;100.00;99592.02;1399136;88;22949;-78
2023/12/21 10:01:42;;;;;;;28.23;17.50;;;;;;;1.52;100.00;99595.35;1444009;88;23003;-77
2023/12/21 10:04:09;;;;;;;30.93;16.27;;;;;;;1.60;100.00;99590.90;1476194;88;22022;-77
2023/12/21 10:06:36;;;;;;;34.70;18.17;;;;;;;1.64;100.00;99579.31;1482129;88;22283;-77
2023/12/21 10:09:04;;;;;;;29.23;18.50;;;;;;;1.65;100.00;99577.06;1451409;88;22168;-78
2023/12/21 10:11:32;;;;;;;23.83;13.93;;;;;;;1.68;100.00;99572.09;1478501;88;23176;-77
2023/12/21 10:14:01;;;;;;;27.20;16.30;;;;;;;1.68;100.00;99556.44;1405214;88;22214;-78
2023/12/21 10:16:26;;;;;;;25.93;15.93;;;;;;;1.71;100.00;99547.09;1396207;88;22250;-76
2023/12/21 10:18:53;;;;;;;23.53;14.43;;;;;;;1.71;100.00;99546.61;1398743;88;22178;-77
2023/12/21 10:21:21;;;;;;;25.07;12.97;;;;;;;1.70;100.00;99548.87;1404362;88;22205;-78
2023/12/21 10:23:48;;;;;;;28.13;15.07;;;;;;;1.69;100.00;99540.66;1395955;88;22097;-78
2023/12/21 10:26:14;;;;;;;21.47;14.03;;;;;;;1.69;100.00;99538.53;1397649;88;21948;-74
2023/12/21 10:28:42;;;;;;;24.13;15.63;;;;;;;1.73;100.00;99536.91;1398552;88;22038;-74
2023/12/21 10:31:10;;;;;;;32.00;15.97;;;;;;;1.83;100.00;99533.12;1397241;88;22199;-73
2023/12/21 10:33:37;;;;;;;22.27;14.57;;;;;;;1.93;100.00;99525.47;1396092;88;22892;-72
2023/12/21 10:36:03;;;;;;;32.97;18.47;;;;;;;2.16;100.00;99523.73;1398871;88;22031;-74
2023/12/21 10:38:31;;;;;;;25.23;15.87;;;;;;;2.24;100.00;99520.91;1398340;88;21259;-73
2023/12/21 10:41:05;;;;;;;21.97;14.83;;;;;;;2.36;100.00;99519.58;1383806;89;22120;-77
2023/12/21 10:43:28;;;;;;;19.00;12.40;;;;;;;2.37;100.00;99503.81;1402497;88;22111;-76
2023/12/21 10:45:55;;;;;;;20.27;11.83;;;;;;;2.34;100.00;99494.08;1455657;88;21527;-77
2023/12/21 10:48:24;;;;;;;19.10;12.80;;;;;;;2.37;100.00;99501.69;1478543;88;21472;-77
2023/12/21 10:50:52;;;;;;;23.57;13.13;;;;;;;2.32;100.00;99471.99;1473018;88;22375;-77
2023/12/21 10:53:22;;;;;;;21.57;12.87;;;;;;;2.32;100.00;99471.99;1471786;88;21539;-78
2023/12/21 10:55:51;;;;;;;21.20;12.70;;;;;;;2.36;100.00;99467.36;1472190;88;21375;-78
2023/12/21 10:58:21;;;;;;;16.57;11.20;;;;;;;2.38;100.00;99465.47;1472029;88;21459;-77
2023/12/21 11:00:49;;;;;;;19.55;13.03;;;;;;;2.37;100.00;99455.98;1559377;88;21355;-77
2023/12/21 11:03:17;;;;;;;22.23;13.63;;;;;;;2.41;100.00;99448.25;1420964;88;21628;-77
2023/12/21 11:05:46;;;;;;;18.37;12.07;;;;;;;2.43;100.00;99417.63;1477418;88;21391;-75
2023/12/21 11:08:12;;;;;;;19.40;11.17;;;;;;;2.48;100.00;99425.95;1469863;88;21539;-77